createdAt,value
2023-03-22T00:01:46.492Z,48769.53
2023-03-22T00:04:13.078Z,48783.25
2023-03-22T00:06:39.536Z,48818.53
2023-03-22T00:09:06.293Z,48808.72
2023-03-22T00:11:32.678Z,48765.63
2023-03-22T00:13:59.941Z,48785.22
2023-03-22T00:16:26.764Z,48753.88
2023-03-22T00:18:53.245Z,48791.09
2023-03-22T00:21:19.752Z,48769.53
2023-03-22T00:23:46.589Z,48785.22
2023-03-22T00:26:14.830Z,48804.81
2023-03-22T00:28:42.284Z,48796.97
2023-03-22T00:31:09.277Z,48789.13
2023-03-22T00:33:36.609Z,48777.38
2023-03-22T00:36:08.686Z,48804.81
2023-03-22T00:38:42.950Z,48767.59
2023-03-22T00:41:11.417Z,48773.47
2023-03-22T00:43:38.486Z,48789.13
2023-03-22T00:46:05.827Z,48812.63
2023-03-22T00:48:32.415Z,48796.97
2023-03-22T00:50:58.904Z,48816.56
2023-03-22T00:53:26.400Z,48787.19
2023-03-22T00:55:52.821Z,48820.47
2023-03-22T00:58:19.226Z,48818.53
2023-03-22T01:00:46.069Z,48808.72
2023-03-22T01:03:14.178Z,48812.63
2023-03-22T01:05:40.589Z,48832.22
2023-03-22T01:08:08.684Z,48834.19
2023-03-22T01:10:36.747Z,48800.88
2023-03-22T01:13:04.008Z,48814.59
2023-03-22T01:15:30.623Z,48796.97
2023-03-22T01:17:57.407Z,48796.97
2023-03-22T01:20:24.189Z,48808.72
2023-03-22T01:22:51.322Z,48800.88
2023-03-22T01:25:18.373Z,48796.97
2023-03-22T01:27:45.226Z,48851.81
2023-03-22T01:30:12.640Z,48816.56
2023-03-22T01:32:39.473Z,48800.88
2023-03-22T01:35:07.179Z,48796.97
2023-03-22T01:37:33.718Z,48800.88
2023-03-22T01:40:00.505Z,48824.41
2023-03-22T01:42:27.844Z,48826.34
2023-03-22T01:45:13.032Z,48800.88
2023-03-22T01:47:47.973Z,48765.63
2023-03-22T01:50:15.222Z,48808.72
2023-03-22T01:52:41.677Z,48791.09
2023-03-22T01:55:09.434Z,48796.97
2023-03-22T01:57:39.250Z,48773.47
2023-03-22T02:00:10.802Z,48789.13
2023-03-22T02:02:37.357Z,48793.06
2023-03-22T02:05:04.474Z,48804.81
2023-03-22T02:07:31.736Z,48826.34
2023-03-22T02:09:59.526Z,48838.09
2023-03-22T02:13:02.003Z,48796.97
2023-03-22T02:15:52.054Z,48812.63
2023-03-22T02:18:35.616Z,48800.88
2023-03-22T02:21:04.965Z,48785.22
2023-03-22T02:23:57.341Z,48791.09
2023-03-22T02:26:41.728Z,48783.25
2023-03-22T02:29:26.266Z,48804.81
2023-03-22T02:32:12.201Z,48806.75
2023-03-22T02:34:55.379Z,48796.97
2023-03-22T02:37:38.886Z,48840.06
2023-03-22T02:40:26.308Z,48824.41
2023-03-22T02:43:16.955Z,48828.31
2023-03-22T02:46:07.746Z,48830.28
2023-03-22T02:48:50.640Z,48804.81
2023-03-22T02:51:29.863Z,48840.06
2023-03-22T02:54:06.523Z,48795.00
2023-03-22T02:57:16.698Z,48824.41
2023-03-22T02:59:44.184Z,48836.16
2023-03-22T03:02:17.263Z,48832.22
2023-03-22T03:04:47.898Z,48824.41
2023-03-22T03:07:19.257Z,48785.22
2023-03-22T03:09:45.997Z,48820.47
2023-03-22T03:12:20.102Z,48836.16
2023-03-22T03:14:46.527Z,48828.31
2023-03-22T03:17:37.920Z,48832.22
2023-03-22T03:20:30.401Z,48844.00
2023-03-22T03:23:04.687Z,48828.31
2023-03-22T03:25:43.599Z,48814.59
2023-03-22T03:28:30.182Z,48832.22
2023-03-22T03:31:06.430Z,48828.31
2023-03-22T03:33:36.338Z,48812.63
2023-03-22T03:36:08.287Z,48820.47
2023-03-22T03:38:38.311Z,48812.63
2023-03-22T03:41:09.192Z,48824.41
2023-03-22T03:43:37.119Z,48812.63
2023-03-22T03:46:03.674Z,48861.63
2023-03-22T03:48:33.195Z,48824.41
2023-03-22T03:51:01.753Z,48844.00
2023-03-22T03:53:28.777Z,48822.44
2023-03-22T03:55:55.205Z,48840.06
2023-03-22T03:58:21.634Z,48840.06
2023-03-22T04:00:48.851Z,48845.94
2023-03-22T04:03:15.663Z,48824.41
2023-03-22T04:05:42.852Z,48842.03
2023-03-22T04:08:09.293Z,48824.41
2023-03-22T04:10:36.076Z,48855.75
2023-03-22T04:13:02.495Z,48851.81
2023-03-22T04:15:29.058Z,48894.91
2023-03-22T04:17:55.532Z,48847.91
2023-03-22T04:20:22.506Z,48840.06
2023-03-22T04:22:49.090Z,48871.41
2023-03-22T04:25:18.039Z,48859.66
2023-03-22T04:27:47.121Z,48869.44
2023-03-22T04:30:22.171Z,48826.34
2023-03-22T04:32:49.685Z,48838.09
2023-03-22T04:35:16.553Z,48847.91
2023-03-22T04:37:43.675Z,48859.66
2023-03-22T04:40:16.518Z,48834.19
2023-03-22T04:42:44.696Z,48855.75
2023-03-22T04:45:12.396Z,48824.41
2023-03-22T04:47:39.200Z,48844.00
2023-03-22T04:50:07.590Z,48836.16
2023-03-22T04:52:33.984Z,48836.16
2023-03-22T04:55:00.468Z,48845.94
2023-03-22T04:57:26.985Z,48838.09
2023-03-22T04:59:53.362Z,48844.00
2023-03-22T05:02:19.825Z,48824.41
2023-03-22T05:04:46.286Z,48859.66
2023-03-22T05:07:12.863Z,48859.66
2023-03-22T05:09:39.380Z,48871.41
2023-03-22T05:12:06.026Z,48838.09
2023-03-22T05:14:32.620Z,48867.50
2023-03-22T05:16:59.147Z,48869.44
2023-03-22T05:19:25.609Z,48867.50
2023-03-22T05:21:58.493Z,48871.41
2023-03-22T05:24:25.271Z,48871.41
2023-03-22T05:26:53.866Z,48871.41
2023-03-22T05:29:21.340Z,48844.00
2023-03-22T05:31:47.898Z,48847.91
2023-03-22T05:34:14.719Z,48847.91
2023-03-22T05:36:41.503Z,48883.16
2023-03-22T05:39:08.080Z,48863.56
2023-03-22T05:41:36.667Z,48859.66
2023-03-22T05:44:04.355Z,48863.56
2023-03-22T05:46:30.894Z,48898.84
2023-03-22T05:48:57.390Z,48863.56
2023-03-22T05:51:26.277Z,48887.09
2023-03-22T05:53:53.533Z,48928.22
2023-03-22T05:56:24.908Z,48930.19
2023-03-22T05:58:52.069Z,48938.03
2023-03-22T06:01:20.404Z,48930.19
2023-03-22T06:03:48.646Z,48963.50
2023-03-22T06:06:15.726Z,48930.19
2023-03-22T06:08:42.870Z,48941.94
2023-03-22T06:11:09.852Z,48941.94
2023-03-22T06:13:37.443Z,48924.31
2023-03-22T06:16:05.341Z,48941.94
2023-03-22T06:18:32.999Z,48955.66
2023-03-22T06:20:59.492Z,48947.81
2023-03-22T06:23:26.301Z,48936.06
2023-03-22T06:25:52.813Z,48941.94
2023-03-22T06:28:19.231Z,48934.09
2023-03-22T06:30:45.751Z,48973.28
2023-03-22T06:33:12.218Z,49000.72
2023-03-22T06:35:38.716Z,48953.69
2023-03-22T06:38:05.460Z,49000.72
2023-03-22T06:40:31.926Z,48961.53
2023-03-22T06:42:59.838Z,48953.69
2023-03-22T06:45:33.136Z,48934.09
2023-03-22T06:48:00.835Z,48961.53
2023-03-22T06:50:28.568Z,48969.38
2023-03-22T06:52:55.338Z,49004.63
2023-03-22T06:55:22.206Z,48973.28
2023-03-22T06:57:48.604Z,48957.59
2023-03-22T07:00:15.927Z,48996.78
2023-03-22T07:02:42.307Z,49016.38
2023-03-22T07:05:09.266Z,49008.53
2023-03-22T07:07:35.810Z,48979.16
2023-03-22T07:10:02.201Z,49000.72
2023-03-22T07:12:28.773Z,48990.91
2023-03-22T07:14:55.349Z,48965.44
2023-03-22T07:17:21.861Z,48985.03
2023-03-22T07:19:48.835Z,48969.38
2023-03-22T07:22:15.450Z,48988.94
2023-03-22T07:24:55.742Z,48973.28
2023-03-22T07:27:23.656Z,48973.28
2023-03-22T07:29:50.184Z,48965.44
2023-03-22T07:32:16.838Z,48967.41
2023-03-22T07:34:43.759Z,48985.03
2023-03-22T07:37:10.260Z,48992.88
2023-03-22T07:39:37.045Z,48969.38
2023-03-22T07:42:03.848Z,48985.03
2023-03-22T07:44:30.830Z,48965.44
2023-03-22T07:46:57.403Z,48990.91
2023-03-22T07:49:24.229Z,48971.31
2023-03-22T07:51:50.901Z,49006.59
2023-03-22T07:54:32.172Z,48981.13
2023-03-22T07:56:59.281Z,48965.44
2023-03-22T07:59:26.018Z,49016.38
2023-03-22T08:01:52.564Z,48969.38
2023-03-22T08:04:20.913Z,48988.94
2023-03-22T08:06:47.315Z,49024.22
2023-03-22T08:09:13.717Z,48973.28
2023-03-22T08:11:40.419Z,48973.28
2023-03-22T08:14:07.062Z,49024.22
2023-03-22T08:16:33.591Z,49008.53
2023-03-22T08:19:00.648Z,48979.16
2023-03-22T08:21:27.541Z,48988.94
2023-03-22T08:23:54.394Z,48985.03
2023-03-22T08:26:22.098Z,48988.94
2023-03-22T08:28:49.015Z,48979.16
2023-03-22T08:31:17.222Z,48981.13
2023-03-22T08:33:44.811Z,48988.94
2023-03-22T08:36:14.640Z,48965.44
2023-03-22T08:38:42.728Z,48973.28
2023-03-22T08:41:09.430Z,48988.94
2023-03-22T08:43:36.017Z,48996.78
2023-03-22T08:46:02.898Z,48973.28
2023-03-22T08:48:30.797Z,48934.09
2023-03-22T08:50:58.127Z,48961.53
2023-03-22T08:53:24.983Z,48945.84
2023-03-22T08:55:51.407Z,48949.78
2023-03-22T08:58:19.957Z,48955.66
2023-03-22T09:00:49.460Z,48938.03
2023-03-22T09:03:16.952Z,48926.25
2023-03-22T09:05:44.025Z,48932.13
2023-03-22T09:08:18.400Z,48938.03
2023-03-22T09:10:51.147Z,48951.72
2023-03-22T09:13:17.956Z,48922.34
2023-03-22T09:15:47.645Z,48883.16
2023-03-22T09:18:15.232Z,48871.41
2023-03-22T09:20:43.152Z,48924.31
2023-03-22T09:23:09.798Z,48900.78
2023-03-22T09:25:36.602Z,48883.16
2023-03-22T09:28:04.191Z,48889.03
2023-03-22T09:30:31.106Z,48879.25
2023-03-22T09:32:57.492Z,48896.88
2023-03-22T09:35:24.419Z,48871.41
2023-03-22T09:37:53.218Z,48836.16
2023-03-22T09:40:21.713Z,48847.91
2023-03-22T09:42:54.236Z,48851.81
2023-03-22T09:45:38.110Z,48828.31
2023-03-22T09:48:11.691Z,48777.38
2023-03-22T09:50:46.231Z,48806.75
2023-03-22T09:53:15.532Z,48796.97
2023-03-22T09:55:51.271Z,48779.34
2023-03-22T09:58:36.721Z,48781.31
2023-03-22T10:01:10.809Z,48769.53
2023-03-22T10:03:42.895Z,48828.31
2023-03-22T10:06:20.792Z,48808.72
2023-03-22T10:09:13.956Z,48785.22
2023-03-22T10:11:47.302Z,48775.41
2023-03-22T10:14:38.524Z,48777.38
2023-03-22T10:17:11.673Z,48793.06
2023-03-22T10:19:56.951Z,48765.63
2023-03-22T10:22:31.150Z,48781.31
2023-03-22T10:25:00.245Z,48787.19
2023-03-22T10:27:29.366Z,48777.38
2023-03-22T10:30:08.777Z,48769.53
2023-03-22T10:32:56.398Z,48773.47
2023-03-22T10:35:23.467Z,48779.34
2023-03-22T10:37:51.698Z,48777.38
2023-03-22T10:40:23.884Z,48795.00
2023-03-22T10:43:01.397Z,48779.34
2023-03-22T10:45:28.474Z,48775.41
2023-03-22T10:48:06.918Z,48775.41
2023-03-22T10:50:38.049Z,48789.13
2023-03-22T10:53:08.698Z,48777.38
2023-03-22T10:55:44.004Z,48769.53
2023-03-22T10:58:10.324Z,48779.34
2023-03-22T11:00:40.633Z,48769.53
2023-03-22T11:03:08.299Z,48761.72
2023-03-22T11:05:35.085Z,48787.19
2023-03-22T11:08:03.219Z,48773.47
2023-03-22T11:10:35.080Z,48791.09
2023-03-22T11:13:07.576Z,48773.47
2023-03-22T11:15:38.843Z,48771.50
2023-03-22T11:18:16.214Z,48773.47
2023-03-22T11:20:56.092Z,48793.06
2023-03-22T11:23:24.097Z,48785.22
2023-03-22T11:25:52.761Z,48781.31
2023-03-22T11:28:25.982Z,48757.78
2023-03-22T11:31:01.811Z,48781.31
2023-03-22T11:33:28.319Z,48804.81
2023-03-22T11:35:57.605Z,48773.47
2023-03-22T11:38:24.166Z,48765.63
2023-03-22T11:40:59.098Z,48765.63
2023-03-22T11:43:52.723Z,48789.13
2023-03-22T11:46:20.763Z,48765.63
2023-03-22T11:48:51.089Z,48773.47
2023-03-22T11:51:26.763Z,48793.06
2023-03-22T11:54:06.919Z,48800.88
2023-03-22T11:56:34.462Z,48777.38
2023-03-22T11:59:07.915Z,48793.06
2023-03-22T12:01:43.870Z,48793.06
2023-03-22T12:04:18.652Z,48781.31
2023-03-22T12:06:45.232Z,48769.53
2023-03-22T12:09:14.384Z,48759.75
2023-03-22T12:11:45.176Z,48771.50
2023-03-22T12:14:23.262Z,48793.06
2023-03-22T12:17:00.187Z,48785.22
2023-03-22T12:19:43.245Z,48761.72
2023-03-22T12:22:31.813Z,48761.72
2023-03-22T12:24:59.441Z,48773.47
2023-03-22T12:27:28.564Z,48781.31
2023-03-22T12:30:01.338Z,48787.19
2023-03-22T12:32:45.796Z,48800.88
2023-03-22T12:35:20.490Z,48793.06
2023-03-22T12:37:52.106Z,48796.97
2023-03-22T12:40:26.436Z,48773.47
2023-03-22T12:43:08.206Z,48765.63
2023-03-22T12:45:41.181Z,48781.31
2023-03-22T12:48:24.024Z,48783.25
2023-03-22T12:50:59.949Z,48793.06
2023-03-22T12:53:33.174Z,48787.19
2023-03-22T12:56:01.052Z,48771.50
2023-03-22T12:58:27.711Z,48753.88
2023-03-22T13:00:59.135Z,48769.53
2023-03-22T13:03:30.037Z,48800.88
2023-03-22T13:06:28.301Z,48789.13
2023-03-22T13:09:21.178Z,48793.06
2023-03-22T13:12:08.893Z,48793.06
2023-03-22T13:14:50.848Z,48775.41
2023-03-22T13:17:23.263Z,48781.31
2023-03-22T13:20:11.633Z,48793.06
2023-03-22T13:22:38.161Z,48793.06
2023-03-22T13:25:12.490Z,48806.75
2023-03-22T13:27:53.980Z,48789.13
2023-03-22T13:30:20.280Z,48796.97
2023-03-22T13:33:03.470Z,48781.31
2023-03-22T13:35:46.538Z,48796.97
2023-03-22T13:38:23.038Z,48789.13
2023-03-22T13:40:56.443Z,48769.53
2023-03-22T13:43:28.234Z,48796.97
2023-03-22T13:46:18.083Z,48796.97
2023-03-22T13:48:47.863Z,48785.22
2023-03-22T13:51:18.197Z,48785.22
2023-03-22T13:54:07.285Z,48804.81
2023-03-22T13:56:43.083Z,48796.97
2023-03-22T13:59:19.795Z,48816.56
2023-03-22T14:01:52.366Z,48796.97
2023-03-22T14:04:30.732Z,48781.31
2023-03-22T14:07:08.119Z,48781.31
2023-03-22T14:09:44.324Z,48793.06
2023-03-22T14:12:13.531Z,48781.31
2023-03-22T14:14:47.295Z,48789.13
2023-03-22T14:17:29.749Z,48769.53
2023-03-22T14:19:58.318Z,48785.22
